sensor_id;sensor_type;location;lat;lon;timestamp;pressure;altitude;pressure_sealevel;temperature;humidity
22651;BME280;11492;42.646;23.400;2023-03-23T00:01:10;95033.84;;;7.00;87.59
22651;BME280;11492;42.646;23.400;2023-03-23T00:03:40;95026.91;;;6.93;87.83
22651;BME280;11492;42.646;23.400;2023-03-23T00:06:06;95029.00;;;6.97;88.07
22651;BME280;11492;42.646;23.400;2023-03-23T00:08:37;95025.16;;;6.94;88.15
22651;BME280;11492;42.646;23.400;2023-03-23T00:11:06;95030.75;;;6.97;87.99
22651;BME280;11492;42.646;23.400;2023-03-23T00:13:32;95027.06;;;6.92;87.97
22651;BME280;11492;42.646;23.400;2023-03-23T00:15:58;95030.59;;;6.91;87.30
22651;BME280;11492;42.646;23.400;2023-03-23T00:18:24;95037.16;;;6.93;87.10
22651;BME280;11492;42.646;23.400;2023-03-23T00:20:56;95030.44;;;6.92;86.25
22651;BME280;11492;42.646;23.400;2023-03-23T00:23:25;95033.13;;;6.75;86.59
22651;BME280;11492;42.646;23.400;2023-03-23T00:25:54;95015.13;;;6.67;85.85
22651;BME280;11492;42.646;23.400;2023-03-23T00:28:23;95034.06;;;6.74;84.75
22651;BME280;11492;42.646;23.400;2023-03-23T00:31:01;95038.69;;;6.71;83.54
22651;BME280;11492;42.646;23.400;2023-03-23T00:33:28;95047.19;;;6.71;83.08
22651;BME280;11492;42.646;23.400;2023-03-23T00:35:55;95048.63;;;6.66;81.98
22651;BME280;11492;42.646;23.400;2023-03-23T00:38:22;95058.69;;;6.59;80.84
22651;BME280;11492;42.646;23.400;2023-03-23T00:40:48;95052.25;;;6.47;81.41
22651;BME280;11492;42.646;23.400;2023-03-23T00:43:17;95056.09;;;6.51;81.58
22651;BME280;11492;42.646;23.400;2023-03-23T00:45:44;95061.25;;;6.59;81.32
22651;BME280;11492;42.646;23.400;2023-03-23T00:48:10;95035.81;;;6.33;81.56
22651;BME280;11492;42.646;23.400;2023-03-23T00:50:38;95052.81;;;6.42;81.30
22651;BME280;11492;42.646;23.400;2023-03-23T00:53:04;95061.03;;;6.45;81.37
22651;BME280;11492;42.646;23.400;2023-03-23T00:55:29;95066.00;;;6.46;81.11
22651;BME280;11492;42.646;23.400;2023-03-23T00:57:55;95054.13;;;6.46;81.43
22651;BME280;11492;42.646;23.400;2023-03-23T01:00:21;95063.91;;;6.42;81.44
22651;BME280;11492;42.646;23.400;2023-03-23T01:02:47;95074.31;;;6.41;81.93
22651;BME280;11492;42.646;23.400;2023-03-23T01:05:13;95065.28;;;6.29;81.32
22651;BME280;11492;42.646;23.400;2023-03-23T01:07:39;95053.06;;;6.23;81.88
22651;BME280;11492;42.646;23.400;2023-03-23T01:10:05;95053.00;;;6.15;82.58
22651;BME280;11492;42.646;23.400;2023-03-23T01:12:31;95055.13;;;6.20;82.85
22651;BME280;11492;42.646;23.400;2023-03-23T01:14:56;95055.28;;;6.18;82.48
22651;BME280;11492;42.646;23.400;2023-03-23T01:17:22;95053.34;;;6.20;82.92
22651;BME280;11492;42.646;23.400;2023-03-23T01:19:47;95037.66;;;5.90;83.32
22651;BME280;11492;42.646;23.400;2023-03-23T01:22:12;95044.19;;;5.85;84.16
22651;BME280;11492;42.646;23.400;2023-03-23T01:24:38;95037.25;;;5.77;85.30
22651;BME280;11492;42.646;23.400;2023-03-23T01:27:03;95030.72;;;5.83;84.94
22651;BME280;11492;42.646;23.400;2023-03-23T01:29:35;95050.94;;;6.11;85.08
22651;BME280;11492;42.646;23.400;2023-03-23T01:32:01;95049.03;;;6.21;84.04
22651;BME280;11492;42.646;23.400;2023-03-23T01:34:26;95038.84;;;6.28;84.24
22651;BME280;11492;42.646;23.400;2023-03-23T01:36:52;95025.88;;;6.30;83.62
22651;BME280;11492;42.646;23.400;2023-03-23T01:39:17;95033.41;;;6.31;83.36
22651;BME280;11492;42.646;23.400;2023-03-23T01:41:43;95030.69;;;6.33;83.67
22651;BME280;11492;42.646;23.400;2023-03-23T01:46:44;95029.56;;;6.35;82.88
22651;BME280;11492;42.646;23.400;2023-03-23T01:49:17;95037.59;;;6.32;83.23
22651;BME280;11492;42.646;23.400;2023-03-23T01:51:49;95016.69;;;6.20;83.49
22651;BME280;11492;42.646;23.400;2023-03-23T01:54:18;95032.75;;;6.29;83.60
22651;BME280;11492;42.646;23.400;2023-03-23T01:56:55;95012.34;;;6.20;83.78
22651;BME280;11492;42.646;23.400;2023-03-23T01:59:22;95028.88;;;6.25;83.73
22651;BME280;11492;42.646;23.400;2023-03-23T02:01:49;95027.59;;;6.22;84.09
22651;BME280;11492;42.646;23.400;2023-03-23T02:04:17;95003.38;;;6.16;83.93
22651;BME280;11492;42.646;23.400;2023-03-23T02:06:44;95020.38;;;6.17;84.46
22651;BME280;11492;42.646;23.400;2023-03-23T02:09:11;95026.13;;;6.19;84.49
22651;BME280;11492;42.646;23.400;2023-03-23T02:11:39;95018.88;;;6.07;85.06
22651;BME280;11492;42.646;23.400;2023-03-23T02:14:05;95016.91;;;6.01;84.84
22651;BME280;11492;42.646;23.400;2023-03-23T02:16:41;95024.53;;;6.18;85.32
22651;BME280;11492;42.646;23.400;2023-03-23T02:24:26;95027.53;;;6.14;84.96
22651;BME280;11492;42.646;23.400;2023-03-23T02:27:01;95023.28;;;6.22;84.38
22651;BME280;11492;42.646;23.400;2023-03-23T02:35:07;95027.72;;;6.20;85.14
22651;BME280;11492;42.646;23.400;2023-03-23T02:37:58;95031.50;;;6.08;85.77
22651;BME280;11492;42.646;23.400;2023-03-23T02:40:33;95021.78;;;5.87;86.39
22651;BME280;11492;42.646;23.400;2023-03-23T02:43:02;95038.25;;;6.09;86.37
22651;BME280;11492;42.646;23.400;2023-03-23T02:45:33;95042.81;;;6.23;86.43
22651;BME280;11492;42.646;23.400;2023-03-23T02:48:00;95047.63;;;6.26;86.21
22651;BME280;11492;42.646;23.400;2023-03-23T02:50:27;95049.72;;;6.22;85.38
22651;BME280;11492;42.646;23.400;2023-03-23T02:52:55;95048.81;;;6.31;85.06
22651;BME280;11492;42.646;23.400;2023-03-23T02:55:22;95042.03;;;6.22;84.18
22651;BME280;11492;42.646;23.400;2023-03-23T02:57:52;95058.53;;;6.28;84.15
22651;BME280;11492;42.646;23.400;2023-03-23T03:00:17;95049.72;;;6.22;84.32
22651;BME280;11492;42.646;23.400;2023-03-23T03:02:54;95058.34;;;6.22;84.03
22651;BME280;11492;42.646;23.400;2023-03-23T03:10:38;95078.19;;;6.20;82.99
22651;BME280;11492;42.646;23.400;2023-03-23T03:13:36;95075.59;;;6.12;83.12
22651;BME280;11492;42.646;23.400;2023-03-23T03:21:29;95093.50;;;5.87;83.34
22651;BME280;11492;42.646;23.400;2023-03-23T03:23:57;95077.84;;;5.72;83.38
22651;BME280;11492;42.646;23.400;2023-03-23T03:26:26;95085.75;;;5.62;83.89
22651;BME280;11492;42.646;23.400;2023-03-23T03:28:53;95095.41;;;5.50;83.92
22651;BME280;11492;42.646;23.400;2023-03-23T03:31:22;95097.00;;;5.34;84.14
22651;BME280;11492;42.646;23.400;2023-03-23T03:33:49;95092.34;;;5.30;84.22
22651;BME280;11492;42.646;23.400;2023-03-23T03:36:18;95087.34;;;5.11;85.43
22651;BME280;11492;42.646;23.400;2023-03-23T03:38:47;95088.66;;;5.15;85.52
22651;BME280;11492;42.646;23.400;2023-03-23T03:41:13;95071.81;;;4.96;85.24
22651;BME280;11492;42.646;23.400;2023-03-23T03:43:39;95084.84;;;4.75;85.92
22651;BME280;11492;42.646;23.400;2023-03-23T03:46:04;95064.91;;;4.62;86.13
22651;BME280;11492;42.646;23.400;2023-03-23T03:48:30;95079.13;;;4.64;86.95
22651;BME280;11492;42.646;23.400;2023-03-23T03:50:55;95089.59;;;4.71;87.18
22651;BME280;11492;42.646;23.400;2023-03-23T03:53:22;95089.16;;;4.75;86.49
22651;BME280;11492;42.646;23.400;2023-03-23T03:55:48;95089.84;;;4.77;86.37
22651;BME280;11492;42.646;23.400;2023-03-23T03:58:16;95090.22;;;4.82;86.34
22651;BME280;11492;42.646;23.400;2023-03-23T04:00:42;95087.66;;;4.82;87.11
22651;BME280;11492;42.646;23.400;2023-03-23T04:03:08;95080.47;;;4.68;85.89
22651;BME280;11492;42.646;23.400;2023-03-23T04:05:34;95070.88;;;4.70;86.52
22651;BME280;11492;42.646;23.400;2023-03-23T04:08:02;95055.09;;;4.57;86.17
22651;BME280;11492;42.646;23.400;2023-03-23T04:10:29;95054.28;;;4.57;86.66
22651;BME280;11492;42.646;23.400;2023-03-23T04:12:55;95084.84;;;4.75;86.21
22651;BME280;11492;42.646;23.400;2023-03-23T04:15:21;95076.94;;;4.69;86.43
22651;BME280;11492;42.646;23.400;2023-03-23T04:17:46;95076.69;;;4.72;86.32
22651;BME280;11492;42.646;23.400;2023-03-23T04:20:12;95082.44;;;4.74;87.49
22651;BME280;11492;42.646;23.400;2023-03-23T04:22:42;95081.78;;;4.72;87.79
22651;BME280;11492;42.646;23.400;2023-03-23T04:25:09;95082.75;;;4.71;88.28
22651;BME280;11492;42.646;23.400;2023-03-23T04:27:36;95081.59;;;4.83;87.73
22651;BME280;11492;42.646;23.400;2023-03-23T04:30:01;95063.03;;;4.81;87.74
22651;BME280;11492;42.646;23.400;2023-03-23T04:32:28;95073.41;;;4.96;88.21
22651;BME280;11492;42.646;23.400;2023-03-23T04:34:58;95080.81;;;4.99;88.48
22651;BME280;11492;42.646;23.400;2023-03-23T04:37:25;95079.59;;;5.03;89.57
22651;BME280;11492;42.646;23.400;2023-03-23T04:39:56;95056.63;;;4.94;90.30
22651;BME280;11492;42.646;23.400;2023-03-23T04:42:32;95066.13;;;5.01;91.16
22651;BME280;11492;42.646;23.400;2023-03-23T04:44:58;95074.16;;;5.06;91.02
22651;BME280;11492;42.646;23.400;2023-03-23T04:47:25;95075.81;;;5.07;90.73
22651;BME280;11492;42.646;23.400;2023-03-23T04:49:57;95064.63;;;5.08;90.99
22651;BME280;11492;42.646;23.400;2023-03-23T04:52:24;95088.44;;;5.26;91.31
22651;BME280;11492;42.646;23.400;2023-03-23T04:54:51;95078.88;;;5.28;90.88
22651;BME280;11492;42.646;23.400;2023-03-23T04:57:17;95090.06;;;5.44;90.85
22651;BME280;11492;42.646;23.400;2023-03-23T04:59:42;95077.19;;;5.53;90.10
22651;BME280;11492;42.646;23.400;2023-03-23T05:02:09;95099.06;;;5.82;89.02
22651;BME280;11492;42.646;23.400;2023-03-23T05:04:36;95097.44;;;5.98;88.67
22651;BME280;11492;42.646;23.400;2023-03-23T05:07:03;95097.84;;;6.11;88.16
22651;BME280;11492;42.646;23.400;2023-03-23T05:09:28;95090.09;;;6.03;86.87
22651;BME280;11492;42.646;23.400;2023-03-23T05:11:54;95102.56;;;5.98;87.34
22651;BME280;11492;42.646;23.400;2023-03-23T05:14:20;95088.97;;;5.81;86.78
22651;BME280;11492;42.646;23.400;2023-03-23T05:16:46;95112.50;;;6.01;87.32
22651;BME280;11492;42.646;23.400;2023-03-23T05:19:14;95103.78;;;5.95;87.45
22651;BME280;11492;42.646;23.400;2023-03-23T05:21:39;95083.34;;;5.77;86.96
22651;BME280;11492;42.646;23.400;2023-03-23T05:24:05;95095.56;;;6.08;87.28
22651;BME280;11492;42.646;23.400;2023-03-23T05:26:31;95106.78;;;6.07;86.96
22651;BME280;11492;42.646;23.400;2023-03-23T05:28:57;95103.28;;;6.33;87.15
22651;BME280;11492;42.646;23.400;2023-03-23T05:31:24;95113.31;;;6.52;86.18
22651;BME280;11492;42.646;23.400;2023-03-23T05:33:50;95110.69;;;6.69;85.44
22651;BME280;11492;42.646;23.400;2023-03-23T05:36:15;95120.25;;;6.92;85.36
22651;BME280;11492;42.646;23.400;2023-03-23T05:38:41;95112.34;;;6.86;84.99
22651;BME280;11492;42.646;23.400;2023-03-23T05:41:13;95128.78;;;7.00;84.72
22651;BME280;11492;42.646;23.400;2023-03-23T05:43:39;95126.09;;;7.10;84.54
22651;BME280;11492;42.646;23.400;2023-03-23T05:46:04;95130.63;;;7.23;83.82
22651;BME280;11492;42.646;23.400;2023-03-23T05:48:30;95127.59;;;7.28;83.31
22651;BME280;11492;42.646;23.400;2023-03-23T05:50:55;95129.00;;;7.22;82.47
22651;BME280;11492;42.646;23.400;2023-03-23T05:53:22;95134.81;;;7.24;82.67
22651;BME280;11492;42.646;23.400;2023-03-23T05:55:48;95139.31;;;7.30;82.57
22651;BME280;11492;42.646;23.400;2023-03-23T05:58:14;95137.44;;;7.48;82.17
22651;BME280;11492;42.646;23.400;2023-03-23T06:00:40;95133.94;;;7.57;81.41
22651;BME280;11492;42.646;23.400;2023-03-23T06:03:05;95117.75;;;7.72;80.27
22651;BME280;11492;42.646;23.400;2023-03-23T06:05:31;95130.75;;;7.94;79.76
22651;BME280;11492;42.646;23.400;2023-03-23T06:07:58;95136.88;;;8.17;79.65
22651;BME280;11492;42.646;23.400;2023-03-23T06:10:24;95139.94;;;8.36;78.63
22651;BME280;11492;42.646;23.400;2023-03-23T06:12:50;95133.19;;;8.35;78.40
22651;BME280;11492;42.646;23.400;2023-03-23T06:15:18;95148.28;;;8.46;79.13
22651;BME280;11492;42.646;23.400;2023-03-23T06:17:44;95139.91;;;8.59;78.34
22651;BME280;11492;42.646;23.400;2023-03-23T06:20:10;95154.03;;;8.71;77.02
22651;BME280;11492;42.646;23.400;2023-03-23T06:22:37;95126.38;;;8.57;76.87
22651;BME280;11492;42.646;23.400;2023-03-23T06:25:05;95136.16;;;8.77;77.17
22651;BME280;11492;42.646;23.400;2023-03-23T06:27:31;95118.94;;;8.78;77.06
22651;BME280;11492;42.646;23.400;2023-03-23T06:29:57;95137.22;;;9.06;76.76
22651;BME280;11492;42.646;23.400;2023-03-23T06:32:24;95137.97;;;9.15;75.56
22651;BME280;11492;42.646;23.400;2023-03-23T06:34:50;95125.94;;;9.07;74.86
22651;BME280;11492;42.646;23.400;2023-03-23T06:37:15;95141.63;;;9.28;74.36
22651;BME280;11492;42.646;23.400;2023-03-23T06:39:41;95137.38;;;9.43;74.79
22651;BME280;11492;42.646;23.400;2023-03-23T06:42:10;95134.13;;;9.41;74.81
22651;BME280;11492;42.646;23.400;2023-03-23T06:44:37;95131.53;;;9.48;75.45
22651;BME280;11492;42.646;23.400;2023-03-23T06:47:03;95133.91;;;9.58;75.11
22651;BME280;11492;42.646;23.400;2023-03-23T06:49:28;95151.72;;;9.67;74.89
22651;BME280;11492;42.646;23.400;2023-03-23T06:51:54;95147.09;;;9.63;74.55
22651;BME280;11492;42.646;23.400;2023-03-23T06:54:21;95156.22;;;9.73;74.43
22651;BME280;11492;42.646;23.400;2023-03-23T06:56:46;95148.13;;;9.76;75.06
22651;BME280;11492;42.646;23.400;2023-03-23T06:59:12;95145.91;;;9.73;73.61
22651;BME280;11492;42.646;23.400;2023-03-23T07:01:37;95159.72;;;9.80;73.67
22651;BME280;11492;42.646;23.400;2023-03-23T07:04:03;95154.25;;;9.75;74.09
22651;BME280;11492;42.646;23.400;2023-03-23T07:06:29;95166.78;;;9.78;75.14
22651;BME280;11492;42.646;23.400;2023-03-23T07:08:54;95161.94;;;9.83;74.71
22651;BME280;11492;42.646;23.400;2023-03-23T07:11:19;95153.91;;;9.78;74.92
22651;BME280;11492;42.646;23.400;2023-03-23T07:13:45;95164.50;;;9.83;74.73
22651;BME280;11492;42.646;23.400;2023-03-23T07:16:11;95151.50;;;9.76;73.94
22651;BME280;11492;42.646;23.400;2023-03-23T07:18:36;95157.59;;;9.83;74.02
22651;BME280;11492;42.646;23.400;2023-03-23T07:21:02;95155.69;;;9.77;74.57
22651;BME280;11492;42.646;23.400;2023-03-23T07:23:29;95157.13;;;9.80;74.15
22651;BME280;11492;42.646;23.400;2023-03-23T07:25:55;95164.22;;;9.86;74.25
22651;BME280;11492;42.646;23.400;2023-03-23T07:28:20;95159.63;;;9.96;74.47
22651;BME280;11492;42.646;23.400;2023-03-23T07:30:46;95151.53;;;9.98;74.74
22651;BME280;11492;42.646;23.400;2023-03-23T07:33:11;95152.28;;;10.07;74.81
22651;BME280;11492;42.646;23.400;2023-03-23T07:35:37;95165.78;;;10.17;74.22
22651;BME280;11492;42.646;23.400;2023-03-23T07:38:04;95154.00;;;10.14;73.67
22651;BME280;11492;42.646;23.400;2023-03-23T07:40:31;95154.94;;;10.21;73.87
22651;BME280;11492;42.646;23.400;2023-03-23T07:43:00;95162.44;;;10.30;72.72
22651;BME280;11492;42.646;23.400;2023-03-23T07:45:27;95173.56;;;10.31;72.75
22651;BME280;11492;42.646;23.400;2023-03-23T07:47:53;95166.13;;;10.36;73.15
22651;BME280;11492;42.646;23.400;2023-03-23T07:50:19;95161.53;;;10.46;73.43
22651;BME280;11492;42.646;23.400;2023-03-23T07:52:50;95166.25;;;10.56;72.80
22651;BME280;11492;42.646;23.400;2023-03-23T07:55:16;95169.66;;;10.71;72.33
22651;BME280;11492;42.646;23.400;2023-03-23T07:57:48;95178.31;;;10.78;71.79
22651;BME280;11492;42.646;23.400;2023-03-23T08:00:17;95171.84;;;10.82;71.71
22651;BME280;11492;42.646;23.400;2023-03-23T08:02:58;95174.31;;;10.90;71.51
22651;BME280;11492;42.646;23.400;2023-03-23T08:05:25;95164.59;;;10.92;71.23
22651;BME280;11492;42.646;23.400;2023-03-23T08:07:52;95180.03;;;10.99;69.84
22651;BME280;11492;42.646;23.400;2023-03-23T08:10:20;95175.31;;;11.17;68.94
22651;BME280;11492;42.646;23.400;2023-03-23T08:12:51;95179.66;;;11.39;68.45
22651;BME280;11492;42.646;23.400;2023-03-23T08:15:16;95172.66;;;11.53;66.50
22651;BME280;11492;42.646;23.400;2023-03-23T08:17:42;95173.75;;;12.14;65.73
22651;BME280;11492;42.646;23.400;2023-03-23T08:20:10;95161.84;;;13.42;61.32
22651;BME280;11492;42.646;23.400;2023-03-23T08:22:39;95164.84;;;14.75;56.63
22651;BME280;11492;42.646;23.400;2023-03-23T08:25:07;95161.53;;;15.69;54.12
22651;BME280;11492;42.646;23.400;2023-03-23T08:27:33;95168.19;;;16.75;51.62
22651;BME280;11492;42.646;23.400;2023-03-23T08:29:59;95160.91;;;17.32;49.01
22651;BME280;11492;42.646;23.400;2023-03-23T08:32:25;95145.78;;;17.93;46.40
22651;BME280;11492;42.646;23.400;2023-03-23T08:34:50;95160.22;;;18.71;46.00
22651;BME280;11492;42.646;23.400;2023-03-23T08:37:16;95153.59;;;19.54;43.19
22651;BME280;11492;42.646;23.400;2023-03-23T08:39:42;95136.72;;;20.34;42.08
22651;BME280;11492;42.646;23.400;2023-03-23T08:42:11;95153.41;;;20.55;41.65
22651;BME280;11492;42.646;23.400;2023-03-23T08:44:37;95156.63;;;21.06;40.77
22651;BME280;11492;42.646;23.400;2023-03-23T08:47:03;95140.56;;;21.51;40.13
22651;BME280;11492;42.646;23.400;2023-03-23T08:49:31;95152.53;;;21.58;38.24
22651;BME280;11492;42.646;23.400;2023-03-23T08:51:58;95143.69;;;21.32;38.28
22651;BME280;11492;42.646;23.400;2023-03-23T08:54:24;95144.97;;;21.46;38.17
22651;BME280;11492;42.646;23.400;2023-03-23T08:56:49;95154.13;;;21.43;38.21
22651;BME280;11492;42.646;23.400;2023-03-23T08:59:16;95149.34;;;21.24;38.15
22651;BME280;11492;42.646;23.400;2023-03-23T09:01:42;95146.16;;;21.54;37.34
22651;BME280;11492;42.646;23.400;2023-03-23T09:04:08;95150.47;;;21.44;35.95
22651;BME280;11492;42.646;23.400;2023-03-23T09:06:37;95144.63;;;21.96;36.29
22651;BME280;11492;42.646;23.400;2023-03-23T09:09:03;95162.38;;;21.19;35.71
22651;BME280;11492;42.646;23.400;2023-03-23T09:11:33;95161.56;;;20.31;38.08
22651;BME280;11492;42.646;23.400;2023-03-23T09:13:59;95163.41;;;19.70;37.35
22651;BME280;11492;42.646;23.400;2023-03-23T09:16:25;95158.28;;;18.78;38.83
22651;BME280;11492;42.646;23.400;2023-03-23T09:18:51;95163.06;;;18.41;39.59
22651;BME280;11492;42.646;23.400;2023-03-23T09:21:17;95163.28;;;18.10;41.44
22651;BME280;11492;42.646;23.400;2023-03-23T09:23:43;95165.19;;;18.03;42.06
22651;BME280;11492;42.646;23.400;2023-03-23T09:26:09;95160.28;;;17.89;41.88
22651;BME280;11492;42.646;23.400;2023-03-23T09:28:35;95158.91;;;17.51;41.94
22651;BME280;11492;42.646;23.400;2023-03-23T09:31:01;95160.59;;;17.22;42.51
22651;BME280;11492;42.646;23.400;2023-03-23T09:33:26;95157.50;;;17.07;45.14
22651;BME280;11492;42.646;23.400;2023-03-23T09:35:54;95155.25;;;16.87;41.92
22651;BME280;11492;42.646;23.400;2023-03-23T09:38:19;95136.38;;;16.37;43.20
22651;BME280;11492;42.646;23.400;2023-03-23T09:41:15;95144.34;;;17.44;41.24
22651;BME280;11492;42.646;23.400;2023-03-23T09:43:58;95145.09;;;18.15;39.31
22651;BME280;11492;42.646;23.400;2023-03-23T09:46:46;95147.03;;;18.37;39.50
22651;BME280;11492;42.646;23.400;2023-03-23T09:49:32;95142.16;;;18.81;39.24
22651;BME280;11492;42.646;23.400;2023-03-23T09:52:05;95138.81;;;19.37;36.89
22651;BME280;11492;42.646;23.400;2023-03-23T09:57:13;95121.63;;;20.02;35.59
22651;BME280;11492;42.646;23.400;2023-03-23T10:00:19;95134.97;;;20.67;34.81
22651;BME280;11492;42.646;23.400;2023-03-23T10:02:56;95123.16;;;20.97;34.15
22651;BME280;11492;42.646;23.400;2023-03-23T10:05:40;95132.03;;;21.60;33.47
22651;BME280;11492;42.646;23.400;2023-03-23T10:08:13;95133.44;;;21.84;32.77
22651;BME280;11492;42.646;23.400;2023-03-23T10:15:59;95124.50;;;22.27;32.03
22651;BME280;11492;42.646;23.400;2023-03-23T10:21:00;95128.38;;;22.67;31.57
22651;BME280;11492;42.646;23.400;2023-03-23T10:23:46;95127.16;;;23.05;31.87
22651;BME280;11492;42.646;23.400;2023-03-23T10:26:25;95106.72;;;23.22;30.59
22651;BME280;11492;42.646;23.400;2023-03-23T10:29:21;95118.44;;;23.35;30.32
22651;BME280;11492;42.646;23.400;2023-03-23T10:31:52;95110.41;;;23.51;31.17
22651;BME280;11492;42.646;23.400;2023-03-23T10:34:33;95117.63;;;23.66;30.72
22651;BME280;11492;42.646;23.400;2023-03-23T10:37:15;95098.41;;;23.70;30.43
22651;BME280;11492;42.646;23.400;2023-03-23T10:39:48;95101.38;;;23.43;31.05
22651;BME280;11492;42.646;23.400;2023-03-23T10:42:30;95109.97;;;23.33;31.41
22651;BME280;11492;42.646;23.400;2023-03-23T10:44:59;95102.19;;;23.48;30.39
22651;BME280;11492;42.646;23.400;2023-03-23T10:47:25;95106.19;;;23.51;30.91
22651;BME280;11492;42.646;23.400;2023-03-23T10:49:56;95107.84;;;23.61;29.91
22651;BME280;11492;42.646;23.400;2023-03-23T10:52:37;95106.94;;;23.92;29.89
22651;BME280;11492;42.646;23.400;2023-03-23T10:55:18;95109.94;;;24.10;29.63
22651;BME280;11492;42.646;23.400;2023-03-23T10:58:22;95109.78;;;23.85;30.78
22651;BME280;11492;42.646;23.400;2023-03-23T11:00:48;95098.97;;;23.82;30.08
22651;BME280;11492;42.646;23.400;2023-03-23T11:05:45;95093.25;;;25.09;29.46
22651;BME280;11492;42.646;23.400;2023-03-23T11:08:37;95093.53;;;25.32;27.78
22651;BME280;11492;42.646;23.400;2023-03-23T11:13:42;95088.50;;;25.35;27.72
22651;BME280;11492;42.646;23.400;2023-03-23T11:16:09;95080.06;;;24.84;29.26
22651;BME280;11492;42.646;23.400;2023-03-23T11:18:39;95084.78;;;24.77;28.24
22651;BME280;11492;42.646;23.400;2023-03-23T11:21:07;95085.31;;;24.94;28.15
22651;BME280;11492;42.646;23.400;2023-03-23T11:23:41;95075.03;;;24.88;28.62
22651;BME280;11492;42.646;23.400;2023-03-23T11:26:28;95066.31;;;25.27;27.91
22651;BME280;11492;42.646;23.400;2023-03-23T11:29:18;95066.56;;;25.45;27.01
22651;BME280;11492;42.646;23.400;2023-03-23T11:31:49;95064.91;;;25.73;27.13
22651;BME280;11492;42.646;23.400;2023-03-23T11:34:40;95063.25;;;25.87;27.01
22651;BME280;11492;42.646;23.400;2023-03-23T11:37:45;95058.53;;;26.41;27.04
22651;BME280;11492;42.646;23.400;2023-03-23T11:40:17;95062.50;;;26.44;26.07
22651;BME280;11492;42.646;23.400;2023-03-23T11:48:03;95046.75;;;27.60;25.10
22651;BME280;11492;42.646;23.400;2023-03-23T11:53:27;95034.69;;;26.84;24.52
22651;BME280;11492;42.646;23.400;2023-03-23T11:56:13;95041.06;;;26.83;24.48
22651;BME280;11492;42.646;23.400;2023-03-23T11:58:40;95045.47;;;26.97;25.17
22651;BME280;11492;42.646;23.400;2023-03-23T12:22:42;95022.88;;;30.87;21.51
22651;BME280;11492;42.646;23.400;2023-03-23T12:31:01;95023.00;;;31.47;20.88
22651;BME280;11492;42.646;23.400;2023-03-23T12:33:44;95019.09;;;31.23;21.34
22651;BME280;11492;42.646;23.400;2023-03-23T12:44:29;95017.22;;;31.54;20.71
22651;BME280;11492;42.646;23.400;2023-03-23T12:47:32;95010.00;;;30.89;21.43
22651;BME280;11492;42.646;23.400;2023-03-23T12:53:22;94991.94;;;28.33;22.85
22651;BME280;11492;42.646;23.400;2023-03-23T12:58:38;94996.63;;;28.78;23.40
22651;BME280;11492;42.646;23.400;2023-03-23T13:01:11;94995.72;;;27.40;24.90
22651;BME280;11492;42.646;23.400;2023-03-23T13:04:00;95002.78;;;26.13;26.55
22651;BME280;11492;42.646;23.400;2023-03-23T13:06:41;95006.56;;;25.11;27.19
22651;BME280;11492;42.646;23.400;2023-03-23T13:09:50;95009.88;;;24.08;28.19
22651;BME280;11492;42.646;23.400;2023-03-23T13:12:14;94990.63;;;23.43;29.65
22651;BME280;11492;42.646;23.400;2023-03-23T13:14:45;95006.66;;;22.96;30.26
22651;BME280;11492;42.646;23.400;2023-03-23T13:17:30;95003.38;;;22.48;31.79
22651;BME280;11492;42.646;23.400;2023-03-23T13:23:08;94990.81;;;22.03;31.94
22651;BME280;11492;42.646;23.400;2023-03-23T13:28:04;94992.38;;;21.57;32.37
22651;BME280;11492;42.646;23.400;2023-03-23T13:30:30;94981.16;;;21.24;32.84
22651;BME280;11492;42.646;23.400;2023-03-23T13:33:04;94997.97;;;21.02;32.94
22651;BME280;11492;42.646;23.400;2023-03-23T13:35:36;94987.47;;;20.86;34.18
22651;BME280;11492;42.646;23.400;2023-03-23T13:38:20;94986.81;;;20.95;34.05
22651;BME280;11492;42.646;23.400;2023-03-23T13:40:48;94989.88;;;20.71;33.85
22651;BME280;11492;42.646;23.400;2023-03-23T13:43:28;94982.72;;;20.67;34.38
22651;BME280;11492;42.646;23.400;2023-03-23T13:45:54;94970.41;;;20.51;35.32
22651;BME280;11492;42.646;23.400;2023-03-23T13:48:24;94984.47;;;20.61;35.09
22651;BME280;11492;42.646;23.400;2023-03-23T13:56:57;94973.09;;;20.72;35.44
22651;BME280;11492;42.646;23.400;2023-03-23T13:59:35;94963.78;;;20.48;35.30
22651;BME280;11492;42.646;23.400;2023-03-23T14:02:39;94969.69;;;20.55;35.91
22651;BME280;11492;42.646;23.400;2023-03-23T14:07:55;94971.00;;;19.82;36.53
22651;BME280;11492;42.646;23.400;2023-03-23T14:10:22;94976.13;;;19.88;36.44
22651;BME280;11492;42.646;23.400;2023-03-23T14:12:50;94965.94;;;19.92;36.62
22651;BME280;11492;42.646;23.400;2023-03-23T14:15:18;94970.09;;;19.88;36.41
22651;BME280;11492;42.646;23.400;2023-03-23T14:17:44;94959.47;;;19.55;36.68
22651;BME280;11492;42.646;23.400;2023-03-23T14:20:31;94958.13;;;19.53;36.90
22651;BME280;11492;42.646;23.400;2023-03-23T14:22:59;94950.41;;;19.47;37.58
22651;BME280;11492;42.646;23.400;2023-03-23T14:25:30;94960.91;;;19.47;37.55
22651;BME280;11492;42.646;23.400;2023-03-23T14:27:59;94957.41;;;19.30;37.83
22651;BME280;11492;42.646;23.400;2023-03-23T14:30:35;94961.84;;;19.41;37.69
22651;BME280;11492;42.646;23.400;2023-03-23T14:33:06;94962.09;;;19.55;38.27
22651;BME280;11492;42.646;23.400;2023-03-23T14:35:36;94961.25;;;19.66;37.86
22651;BME280;11492;42.646;23.400;2023-03-23T14:38:04;94959.63;;;19.49;37.82
22651;BME280;11492;42.646;23.400;2023-03-23T14:40:30;94966.88;;;19.31;37.76
22651;BME280;11492;42.646;23.400;2023-03-23T14:42:57;94964.41;;;19.02;39.38
22651;BME280;11492;42.646;23.400;2023-03-23T14:45:23;94954.50;;;18.81;39.10
22651;BME280;11492;42.646;23.400;2023-03-23T14:47:57;94956.81;;;18.55;39.19
22651;BME280;11492;42.646;23.400;2023-03-23T14:50:31;94962.03;;;18.33;39.59
22651;BME280;11492;42.646;23.400;2023-03-23T14:53:16;94955.78;;;18.34;40.50